Todos
Parkes Hospital Airport YXPK Condições meteorológicas
There is no TAF data available at YXPK. Showing TAF data for YPKS (4 mi L).
PKE Previsão da área de terminais (sem dados para YXPK)
| Date | Time (AEST) | Flight Rules | Wind Dir. | Speed | Type | Height AGL (ft) | Visibility | Remarks | ||||||
|---|---|---|---|---|---|---|---|---|---|---|---|---|---|---|
There is no METAR data available at YXPK. Showing METAR data for YPKS (4 mi L).
Histórico recente de METAR PKE (sem dados para YXPK)
| Date | Time (AEST) | Flight Rules | Wind Dir. | Speed | Type | Height AGL (ft) | Visibility | Temp (°C) | Temp (°F) | Dew Point (°C) | Dew Point (°F) | Rel. Humid. | Pressure | Density Altitude | Remarks |
|---|---|---|---|---|---|---|---|---|---|---|---|---|---|---|---|
| 06-Mai | 02:00 | VFR | Calm | 10000 meters | 7° | 44° | 6° | 42° | 93% | 1021 mb | 116 ft | ||||
| 06-Mai | 01:00 | VFR | Calm | 10000 meters | 7° | 44° | 7° | 44° | 100% | 1022 mb | 87 ft | ||||
| 06-Mai | 00:00 | VFR | 150° | 3 kt | 10000 meters | 8° | 46° | 7° | 44° | 93% | 1022 mb | 207 ft | |||
| 05-Mai | 23:00 | VFR | Calm | 10000 meters | 8° | 46° | 7° | 44° | 93% | 1022 mb | 207 ft | ||||
| 05-Mai | 22:00 | VFR | 150° | 1 kt | 10000 meters | 9° | 48° | 8° | 46° | 93% | 1022 mb | 327 ft | |||
| 05-Mai | 21:00 | VFR | 150° | 5 kt | 10000 meters | 10° | 50° | 8° | 46° | 87% | 1022 mb | 447 ft | |||
| 05-Mai | 20:00 | VFR | 150° | 3 kt | 10000 meters | 10° | 50° | 8° | 46° | 87% | 1022 mb | 447 ft | |||
| 05-Mai | 19:00 | VFR | 170° | 5 kt | 10000 meters | 12° | 53° | 8° | 46° | 76% | 1022 mb | 687 ft | |||
| 05-Mai | 18:00 | VFR | 200° | 7 kt | 10000 meters | 12° | 53° | 9° | 48° | 82% | 1021 mb | 716 ft | |||
| 05-Mai | 17:00 | VFR | 210° | 8 kt | 10000 meters | 15° | 59° | 8° | 46° | 63% | 1021 mb | 1.076 ft | |||
| 05-Mai | 16:00 | VFR | 210° | 7 kt | 10000 meters | 15° | 59° | 8° | 46° | 63% | 1021 mb | 1.076 ft | |||
| 05-Mai | 15:00 | VFR | 190° | 9 kt | Few |
4.700 |
10000 meters | 17° | 62° | 8° | 46° | 55% | 1020 mb | 1.346 ft | |
| 05-Mai | 14:00 | VFR | 200° | 11 kt | Few |
3.500 |
10000 meters | 16° | 60° | 9° | 48° | 63% | 1020 mb | 1.226 ft | |
| 05-Mai | 13:00 | VFR | 240° | 8 kt | Few |
3.100 |
10000 meters | 17° | 62° | 9° | 48° | 59% | 1020 mb | 1.346 ft | |
| 05-Mai | 12:00 | VFR | 230° | 7 kt | 10000 meters | 16° | 60° | 9° | 48° | 63% | 1021 mb | 1.196 ft | |||
| 05-Mai | 11:00 | VFR | 210° | 6 kt | 10000 meters | 15° | 59° | 10° | 50° | 72% | 1021 mb | 1.076 ft | |||
| 05-Mai | 10:00 | VFR | 220° | 7 kt | 10000 meters | 14° | 57° | 11° | 51° | 82% | 1021 mb | 956 ft | |||
| 05-Mai | 09:00 | VFR | Calm | 10000 meters | 12° | 53° | 11° | 51° | 94% | 1021 mb | 716 ft | ||||
| 05-Mai | 08:00 | VFR | Calm | 10000 meters | 10° | 50° | 10° | 50° | 100% | 1021 mb | 476 ft | ||||
| 05-Mai | 07:00 | VFR | 190° | 4 kt | 10000 meters | 7° | 44° | 7° | 44° | 100% | 1020 mb | 146 ft | |||
| 05-Mai | 06:00 | VFR | Calm | 10000 meters | 7° | 44° | 7° | 44° | 100% | 1019 mb | 176 ft | ||||
| 05-Mai | 05:00 | VFR | 190° | 1 kt | 10000 meters | 8° | 46° | 8° | 46° | 100% | 1019 mb | 296 ft | |||
| 05-Mai | 04:04 | VFR | 190° | 4 kt | 10000 meters | 7° | 44° | 7° | 44° | 100% | 1019 mb | 176 ft | |||
| 05-Mai | 03:00 | VFR | 190° | 5 kt | 10000 meters | 8° | 46° | 8° | 46° | 100% | 1018 mb | 325 ft |
Entrar
| Seu navegador não suporta. atualize seu navegador |
